Terminal Aerodrome Forecast
Issued by NWS

Home | Current Version | Previous Version | Text Only | Print | Product List | Glossary On
Versions: 1 2 3 4 5 6 7 8 9 10 11 12 13 14 15 16
000
FTUS43 KDTX 291732
TAFMBS
TAF
KMBS 291732Z 2918/3018 14005KT 6SM -SHRA BKN045 OVC080
     FM300100 14005KT 3SM BR BKN025 OVC040
     FM300600 VRB03KT 1SM BR OVC007
     FM301400 VRB03KT 3SM BR BKN025=

USA.gov is the U.S. government's official web portal to all federal, state and local government web resources and services.